sensor_id;sensor_type;location;lat;lon;timestamp;P1;durP1;ratioP1;P2;durP2;ratioP2
4057;SDS011;2044;48.692;9.020;2023-06-22T00:00:51;13.57;;;10.03;;
4057;SDS011;2044;48.692;9.020;2023-06-22T00:03:18;12.30;;;9.17;;
4057;SDS011;2044;48.692;9.020;2023-06-22T00:05:45;11.70;;;9.20;;
4057;SDS011;2044;48.692;9.020;2023-06-22T00:08:13;12.20;;;9.37;;
4057;SDS011;2044;48.692;9.020;2023-06-22T00:10:40;12.40;;;9.20;;
4057;SDS011;2044;48.692;9.020;2023-06-22T00:13:08;18.20;;;9.00;;
4057;SDS011;2044;48.692;9.020;2023-06-22T00:15:36;14.57;;;10.27;;
4057;SDS011;2044;48.692;9.020;2023-06-22T00:18:04;12.43;;;8.90;;
4057;SDS011;2044;48.692;9.020;2023-06-22T00:20:30;13.03;;;9.53;;
4057;SDS011;2044;48.692;9.020;2023-06-22T00:22:58;12.43;;;8.70;;
4057;SDS011;2044;48.692;9.020;2023-06-22T00:25:26;14.50;;;10.83;;
4057;SDS011;2044;48.692;9.020;2023-06-22T00:27:52;16.43;;;9.93;;
4057;SDS011;2044;48.692;9.020;2023-06-22T00:30:20;11.30;;;8.60;;
4057;SDS011;2044;48.692;9.020;2023-06-22T00:32:47;15.47;;;9.93;;
4057;SDS011;2044;48.692;9.020;2023-06-22T00:35:14;16.03;;;9.60;;
4057;SDS011;2044;48.692;9.020;2023-06-22T00:37:41;15.77;;;9.63;;
4057;SDS011;2044;48.692;9.020;2023-06-22T00:40:09;13.80;;;8.50;;
4057;SDS011;2044;48.692;9.020;2023-06-22T00:42:37;11.47;;;9.43;;
4057;SDS011;2044;48.692;9.020;2023-06-22T00:45:05;11.77;;;9.00;;
4057;SDS011;2044;48.692;9.020;2023-06-22T00:47:34;12.00;;;8.87;;
4057;SDS011;2044;48.692;9.020;2023-06-22T00:50:02;11.77;;;9.23;;
4057;SDS011;2044;48.692;9.020;2023-06-22T00:52:29;13.70;;;8.97;;
4057;SDS011;2044;48.692;9.020;2023-06-22T00:54:58;14.60;;;9.17;;
4057;SDS011;2044;48.692;9.020;2023-06-22T00:57:28;13.60;;;9.30;;
4057;SDS011;2044;48.692;9.020;2023-06-22T00:59:54;12.73;;;9.27;;
4057;SDS011;2044;48.692;9.020;2023-06-22T01:02:21;13.63;;;8.53;;
4057;SDS011;2044;48.692;9.020;2023-06-22T01:04:49;13.50;;;9.33;;
4057;SDS011;2044;48.692;9.020;2023-06-22T01:07:17;11.63;;;9.07;;
4057;SDS011;2044;48.692;9.020;2023-06-22T01:09:57;12.07;;;8.30;;
4057;SDS011;2044;48.692;9.020;2023-06-22T01:12:26;11.30;;;7.73;;
4057;SDS011;2044;48.692;9.020;2023-06-22T01:14:58;14.73;;;10.93;;
4057;SDS011;2044;48.692;9.020;2023-06-22T01:17:30;17.87;;;10.07;;
4057;SDS011;2044;48.692;9.020;2023-06-22T01:20:00;13.03;;;10.13;;
4057;SDS011;2044;48.692;9.020;2023-06-22T01:22:30;14.93;;;8.93;;
4057;SDS011;2044;48.692;9.020;2023-06-22T01:25:07;13.07;;;9.23;;
4057;SDS011;2044;48.692;9.020;2023-06-22T01:27:40;15.90;;;9.63;;
4057;SDS011;2044;48.692;9.020;2023-06-22T01:30:17;14.83;;;8.00;;
4057;SDS011;2044;48.692;9.020;2023-06-22T01:32:46;11.80;;;8.80;;
4057;SDS011;2044;48.692;9.020;2023-06-22T01:35:14;12.63;;;8.40;;
4057;SDS011;2044;48.692;9.020;2023-06-22T01:37:42;11.90;;;8.77;;
4057;SDS011;2044;48.692;9.020;2023-06-22T01:40:10;16.17;;;8.53;;
4057;SDS011;2044;48.692;9.020;2023-06-22T01:42:37;12.83;;;9.10;;
4057;SDS011;2044;48.692;9.020;2023-06-22T01:45:05;14.10;;;9.80;;
4057;SDS011;2044;48.692;9.020;2023-06-22T01:47:35;16.53;;;9.53;;
4057;SDS011;2044;48.692;9.020;2023-06-22T01:50:02;12.00;;;8.73;;
4057;SDS011;2044;48.692;9.020;2023-06-22T01:52:30;12.83;;;9.20;;
4057;SDS011;2044;48.692;9.020;2023-06-22T01:54:58;13.23;;;10.10;;
4057;SDS011;2044;48.692;9.020;2023-06-22T01:57:26;16.10;;;11.83;;
4057;SDS011;2044;48.692;9.020;2023-06-22T01:59:57;15.77;;;11.17;;
4057;SDS011;2044;48.692;9.020;2023-06-22T02:02:27;13.87;;;9.27;;
4057;SDS011;2044;48.692;9.020;2023-06-22T02:05:01;12.67;;;8.73;;
4057;SDS011;2044;48.692;9.020;2023-06-22T02:07:33;12.27;;;8.53;;
4057;SDS011;2044;48.692;9.020;2023-06-22T02:10:05;14.87;;;9.93;;
4057;SDS011;2044;48.692;9.020;2023-06-22T02:12:37;14.33;;;10.57;;
4057;SDS011;2044;48.692;9.020;2023-06-22T02:15:05;15.03;;;9.57;;
4057;SDS011;2044;48.692;9.020;2023-06-22T02:17:33;12.40;;;8.60;;
4057;SDS011;2044;48.692;9.020;2023-06-22T02:20:02;18.07;;;9.67;;
4057;SDS011;2044;48.692;9.020;2023-06-22T02:22:33;16.50;;;8.77;;
4057;SDS011;2044;48.692;9.020;2023-06-22T02:24:59;15.80;;;9.50;;
4057;SDS011;2044;48.692;9.020;2023-06-22T02:27:26;15.73;;;9.97;;
4057;SDS011;2044;48.692;9.020;2023-06-22T02:29:53;14.00;;;9.50;;
4057;SDS011;2044;48.692;9.020;2023-06-22T02:32:20;16.63;;;9.53;;
4057;SDS011;2044;48.692;9.020;2023-06-22T02:34:47;23.00;;;10.50;;
4057;SDS011;2044;48.692;9.020;2023-06-22T02:37:15;15.30;;;9.93;;
4057;SDS011;2044;48.692;9.020;2023-06-22T02:39:42;13.40;;;9.80;;
4057;SDS011;2044;48.692;9.020;2023-06-22T02:42:09;15.00;;;11.00;;
4057;SDS011;2044;48.692;9.020;2023-06-22T02:44:36;17.90;;;10.47;;
4057;SDS011;2044;48.692;9.020;2023-06-22T02:47:03;16.33;;;9.70;;
4057;SDS011;2044;48.692;9.020;2023-06-22T02:49:30;16.03;;;9.10;;
4057;SDS011;2044;48.692;9.020;2023-06-22T02:51:57;16.17;;;8.50;;
4057;SDS011;2044;48.692;9.020;2023-06-22T02:54:25;13.57;;;9.30;;
4057;SDS011;2044;48.692;9.020;2023-06-22T02:56:52;15.73;;;9.07;;
4057;SDS011;2044;48.692;9.020;2023-06-22T02:59:19;13.40;;;8.13;;
4057;SDS011;2044;48.692;9.020;2023-06-22T03:01:48;12.27;;;8.37;;
4057;SDS011;2044;48.692;9.020;2023-06-22T03:04:15;11.10;;;7.83;;
4057;SDS011;2044;48.692;9.020;2023-06-22T03:06:42;12.37;;;7.70;;
4057;SDS011;2044;48.692;9.020;2023-06-22T03:09:08;14.40;;;7.77;;
4057;SDS011;2044;48.692;9.020;2023-06-22T03:11:37;14.47;;;8.60;;
4057;SDS011;2044;48.692;9.020;2023-06-22T03:14:03;13.87;;;7.90;;
4057;SDS011;2044;48.692;9.020;2023-06-22T03:16:30;12.77;;;8.10;;
4057;SDS011;2044;48.692;9.020;2023-06-22T03:18:58;10.80;;;7.37;;
4057;SDS011;2044;48.692;9.020;2023-06-22T03:21:26;13.07;;;9.03;;
4057;SDS011;2044;48.692;9.020;2023-06-22T03:23:54;13.10;;;9.60;;
4057;SDS011;2044;48.692;9.020;2023-06-22T03:26:21;12.00;;;8.70;;
4057;SDS011;2044;48.692;9.020;2023-06-22T03:28:53;17.40;;;10.10;;
4057;SDS011;2044;48.692;9.020;2023-06-22T03:31:19;15.00;;;10.60;;
4057;SDS011;2044;48.692;9.020;2023-06-22T03:33:46;14.07;;;9.23;;
4057;SDS011;2044;48.692;9.020;2023-06-22T03:36:14;14.30;;;9.20;;
4057;SDS011;2044;48.692;9.020;2023-06-22T03:38:43;13.90;;;8.57;;
4057;SDS011;2044;48.692;9.020;2023-06-22T03:41:11;16.43;;;9.40;;
4057;SDS011;2044;48.692;9.020;2023-06-22T03:43:38;12.83;;;8.90;;
4057;SDS011;2044;48.692;9.020;2023-06-22T03:46:06;17.00;;;10.20;;
4057;SDS011;2044;48.692;9.020;2023-06-22T03:48:33;16.50;;;10.83;;
4057;SDS011;2044;48.692;9.020;2023-06-22T03:51:00;20.43;;;11.00;;
4057;SDS011;2044;48.692;9.020;2023-06-22T03:53:28;18.20;;;10.27;;
4057;SDS011;2044;48.692;9.020;2023-06-22T03:55:54;16.20;;;10.00;;
4057;SDS011;2044;48.692;9.020;2023-06-22T03:58:21;17.07;;;10.60;;
4057;SDS011;2044;48.692;9.020;2023-06-22T04:00:48;20.10;;;11.17;;
4057;SDS011;2044;48.692;9.020;2023-06-22T04:03:18;18.00;;;10.93;;
4057;SDS011;2044;48.692;9.020;2023-06-22T04:05:45;15.90;;;10.23;;
4057;SDS011;2044;48.692;9.020;2023-06-22T04:08:12;15.70;;;10.43;;
4057;SDS011;2044;48.692;9.020;2023-06-22T04:10:40;14.90;;;10.40;;
4057;SDS011;2044;48.692;9.020;2023-06-22T04:13:06;18.60;;;10.60;;
4057;SDS011;2044;48.692;9.020;2023-06-22T04:15:33;12.93;;;9.70;;
4057;SDS011;2044;48.692;9.020;2023-06-22T04:18:00;15.07;;;9.60;;
4057;SDS011;2044;48.692;9.020;2023-06-22T04:20:28;12.40;;;8.57;;
4057;SDS011;2044;48.692;9.020;2023-06-22T04:22:56;13.33;;;8.33;;
4057;SDS011;2044;48.692;9.020;2023-06-22T04:25:23;13.53;;;9.47;;
4057;SDS011;2044;48.692;9.020;2023-06-22T04:27:49;12.90;;;8.77;;
4057;SDS011;2044;48.692;9.020;2023-06-22T04:30:16;12.00;;;8.47;;
4057;SDS011;2044;48.692;9.020;2023-06-22T04:32:43;20.83;;;9.27;;
4057;SDS011;2044;48.692;9.020;2023-06-22T04:35:10;9.33;;;7.30;;
4057;SDS011;2044;48.692;9.020;2023-06-22T04:37:40;10.30;;;7.00;;
4057;SDS011;2044;48.692;9.020;2023-06-22T04:40:07;9.83;;;7.80;;
4057;SDS011;2044;48.692;9.020;2023-06-22T04:42:34;9.80;;;7.40;;
4057;SDS011;2044;48.692;9.020;2023-06-22T04:45:04;11.33;;;7.57;;
4057;SDS011;2044;48.692;9.020;2023-06-22T04:47:31;10.73;;;7.30;;
4057;SDS011;2044;48.692;9.020;2023-06-22T04:49:58;11.97;;;6.63;;
4057;SDS011;2044;48.692;9.020;2023-06-22T04:52:31;11.37;;;7.20;;
4057;SDS011;2044;48.692;9.020;2023-06-22T04:54:59;12.37;;;7.37;;
4057;SDS011;2044;48.692;9.020;2023-06-22T04:57:26;11.57;;;8.03;;
4057;SDS011;2044;48.692;9.020;2023-06-22T04:59:57;9.43;;;6.70;;
4057;SDS011;2044;48.692;9.020;2023-06-22T05:02:26;10.30;;;6.73;;
4057;SDS011;2044;48.692;9.020;2023-06-22T05:04:57;10.20;;;7.37;;
4057;SDS011;2044;48.692;9.020;2023-06-22T05:07:24;9.03;;;7.60;;
4057;SDS011;2044;48.692;9.020;2023-06-22T05:09:51;8.73;;;6.80;;
4057;SDS011;2044;48.692;9.020;2023-06-22T05:12:20;9.30;;;7.40;;
4057;SDS011;2044;48.692;9.020;2023-06-22T05:14:47;11.23;;;8.00;;
4057;SDS011;2044;48.692;9.020;2023-06-22T05:17:14;10.47;;;7.73;;
4057;SDS011;2044;48.692;9.020;2023-06-22T05:19:44;7.93;;;6.43;;
4057;SDS011;2044;48.692;9.020;2023-06-22T05:22:13;10.50;;;7.60;;
4057;SDS011;2044;48.692;9.020;2023-06-22T05:24:40;9.13;;;7.00;;
4057;SDS011;2044;48.692;9.020;2023-06-22T05:27:07;8.53;;;6.80;;
4057;SDS011;2044;48.692;9.020;2023-06-22T05:29:35;8.13;;;7.33;;
4057;SDS011;2044;48.692;9.020;2023-06-22T05:32:03;8.63;;;6.80;;
4057;SDS011;2044;48.692;9.020;2023-06-22T05:34:31;10.20;;;6.90;;
4057;SDS011;2044;48.692;9.020;2023-06-22T05:36:58;8.33;;;6.53;;
4057;SDS011;2044;48.692;9.020;2023-06-22T05:39:25;7.63;;;6.93;;
4057;SDS011;2044;48.692;9.020;2023-06-22T05:41:52;9.47;;;6.43;;
4057;SDS011;2044;48.692;9.020;2023-06-22T05:44:19;8.00;;;6.07;;
4057;SDS011;2044;48.692;9.020;2023-06-22T05:46:50;10.13;;;6.67;;
4057;SDS011;2044;48.692;9.020;2023-06-22T05:49:17;9.70;;;6.60;;
4057;SDS011;2044;48.692;9.020;2023-06-22T05:51:44;7.93;;;6.27;;
4057;SDS011;2044;48.692;9.020;2023-06-22T05:54:11;11.20;;;6.47;;
4057;SDS011;2044;48.692;9.020;2023-06-22T05:56:43;9.17;;;6.00;;
4057;SDS011;2044;48.692;9.020;2023-06-22T05:59:10;9.30;;;6.03;;
4057;SDS011;2044;48.692;9.020;2023-06-22T06:01:37;7.07;;;5.53;;
4057;SDS011;2044;48.692;9.020;2023-06-22T06:04:06;7.37;;;5.70;;
4057;SDS011;2044;48.692;9.020;2023-06-22T06:06:34;8.53;;;6.37;;
4057;SDS011;2044;48.692;9.020;2023-06-22T06:09:02;8.17;;;6.93;;
4057;SDS011;2044;48.692;9.020;2023-06-22T06:11:29;6.33;;;5.73;;
4057;SDS011;2044;48.692;9.020;2023-06-22T06:13:57;7.40;;;5.80;;
4057;SDS011;2044;48.692;9.020;2023-06-22T06:16:25;9.13;;;6.30;;
4057;SDS011;2044;48.692;9.020;2023-06-22T06:18:52;8.93;;;6.50;;
4057;SDS011;2044;48.692;9.020;2023-06-22T06:21:23;9.43;;;7.53;;
4057;SDS011;2044;48.692;9.020;2023-06-22T06:23:52;9.30;;;7.43;;
4057;SDS011;2044;48.692;9.020;2023-06-22T06:26:20;8.40;;;7.60;;
4057;SDS011;2044;48.692;9.020;2023-06-22T06:28:55;8.67;;;7.87;;
4057;SDS011;2044;48.692;9.020;2023-06-22T06:31:22;9.00;;;8.30;;
4057;SDS011;2044;48.692;9.020;2023-06-22T06:33:52;9.60;;;8.80;;
4057;SDS011;2044;48.692;9.020;2023-06-22T06:36:20;9.70;;;8.90;;
4057;SDS011;2044;48.692;9.020;2023-06-22T06:38:51;9.70;;;8.90;;
4057;SDS011;2044;48.692;9.020;2023-06-22T06:41:18;9.57;;;8.77;;
4057;SDS011;2044;48.692;9.020;2023-06-22T06:43:46;11.23;;;8.80;;
4057;SDS011;2044;48.692;9.020;2023-06-22T06:46:13;8.80;;;8.00;;
4057;SDS011;2044;48.692;9.020;2023-06-22T06:48:40;8.83;;;7.93;;
4057;SDS011;2044;48.692;9.020;2023-06-22T06:51:07;9.40;;;8.60;;
4057;SDS011;2044;48.692;9.020;2023-06-22T06:53:35;9.80;;;9.00;;
4057;SDS011;2044;48.692;9.020;2023-06-22T06:56:03;10.57;;;9.50;;
4057;SDS011;2044;48.692;9.020;2023-06-22T06:58:31;10.47;;;9.70;;
4057;SDS011;2044;48.692;9.020;2023-06-22T07:00:58;13.00;;;10.13;;
4057;SDS011;2044;48.692;9.020;2023-06-22T07:03:25;11.00;;;10.10;;
4057;SDS011;2044;48.692;9.020;2023-06-22T07:05:52;11.67;;;10.77;;
4057;SDS011;2044;48.692;9.020;2023-06-22T07:08:19;10.57;;;9.87;;
4057;SDS011;2044;48.692;9.020;2023-06-22T07:10:46;11.37;;;9.93;;
4057;SDS011;2044;48.692;9.020;2023-06-22T07:13:15;11.63;;;10.63;;
4057;SDS011;2044;48.692;9.020;2023-06-22T07:15:42;10.10;;;9.40;;
4057;SDS011;2044;48.692;9.020;2023-06-22T07:18:08;11.37;;;10.47;;
4057;SDS011;2044;48.692;9.020;2023-06-22T07:20:35;11.50;;;10.60;;
4057;SDS011;2044;48.692;9.020;2023-06-22T07:23:02;11.20;;;10.00;;
4057;SDS011;2044;48.692;9.020;2023-06-22T07:25:29;10.80;;;9.90;;
4057;SDS011;2044;48.692;9.020;2023-06-22T07:27:57;9.60;;;8.90;;
4057;SDS011;2044;48.692;9.020;2023-06-22T07:30:27;10.30;;;9.60;;
4057;SDS011;2044;48.692;9.020;2023-06-22T07:32:54;10.40;;;9.50;;
4057;SDS011;2044;48.692;9.020;2023-06-22T07:35:21;11.33;;;10.33;;
4057;SDS011;2044;48.692;9.020;2023-06-22T07:37:48;10.67;;;9.83;;
4057;SDS011;2044;48.692;9.020;2023-06-22T07:40:15;11.13;;;10.13;;
4057;SDS011;2044;48.692;9.020;2023-06-22T07:42:42;12.67;;;10.83;;
4057;SDS011;2044;48.692;9.020;2023-06-22T07:45:13;14.10;;;11.70;;
4057;SDS011;2044;48.692;9.020;2023-06-22T07:47:41;11.73;;;10.63;;
4057;SDS011;2044;48.692;9.020;2023-06-22T07:50:09;12.03;;;11.13;;
4057;SDS011;2044;48.692;9.020;2023-06-22T07:52:36;12.37;;;11.20;;
4057;SDS011;2044;48.692;9.020;2023-06-22T07:55:03;11.17;;;10.37;;
4057;SDS011;2044;48.692;9.020;2023-06-22T07:57:30;11.27;;;10.30;;
4057;SDS011;2044;48.692;9.020;2023-06-22T07:59:58;11.47;;;10.53;;
4057;SDS011;2044;48.692;9.020;2023-06-22T08:02:25;12.10;;;11.03;;
4057;SDS011;2044;48.692;9.020;2023-06-22T08:04:54;11.23;;;10.10;;
4057;SDS011;2044;48.692;9.020;2023-06-22T08:07:20;11.73;;;10.67;;
4057;SDS011;2044;48.692;9.020;2023-06-22T08:09:47;12.03;;;10.90;;
4057;SDS011;2044;48.692;9.020;2023-06-22T08:12:15;11.37;;;10.43;;
4057;SDS011;2044;48.692;9.020;2023-06-22T08:14:42;11.53;;;10.63;;
4057;SDS011;2044;48.692;9.020;2023-06-22T08:17:09;11.27;;;10.37;;
4057;SDS011;2044;48.692;9.020;2023-06-22T08:19:36;11.70;;;10.50;;
4057;SDS011;2044;48.692;9.020;2023-06-22T08:22:05;12.03;;;10.83;;
4057;SDS011;2044;48.692;9.020;2023-06-22T08:24:32;11.33;;;10.50;;
4057;SDS011;2044;48.692;9.020;2023-06-22T08:26:58;11.67;;;10.60;;
4057;SDS011;2044;48.692;9.020;2023-06-22T08:29:25;11.60;;;10.47;;
4057;SDS011;2044;48.692;9.020;2023-06-22T08:31:52;11.37;;;10.37;;
4057;SDS011;2044;48.692;9.020;2023-06-22T08:34:19;12.00;;;10.90;;
4057;SDS011;2044;48.692;9.020;2023-06-22T08:36:48;11.17;;;10.40;;
4057;SDS011;2044;48.692;9.020;2023-06-22T08:39:18;11.90;;;10.80;;
4057;SDS011;2044;48.692;9.020;2023-06-22T08:41:45;10.57;;;9.87;;
4057;SDS011;2044;48.692;9.020;2023-06-22T08:44:12;11.33;;;10.43;;
4057;SDS011;2044;48.692;9.020;2023-06-22T08:46:39;11.53;;;10.30;;
4057;SDS011;2044;48.692;9.020;2023-06-22T08:49:06;11.97;;;10.97;;
4057;SDS011;2044;48.692;9.020;2023-06-22T08:51:35;11.60;;;10.70;;
4057;SDS011;2044;48.692;9.020;2023-06-22T08:54:02;11.93;;;11.00;;
4057;SDS011;2044;48.692;9.020;2023-06-22T08:56:31;12.50;;;11.40;;
4057;SDS011;2044;48.692;9.020;2023-06-22T08:58:58;12.93;;;11.73;;
4057;SDS011;2044;48.692;9.020;2023-06-22T09:01:25;12.53;;;11.33;;
4057;SDS011;2044;48.692;9.020;2023-06-22T09:03:52;12.90;;;11.80;;
4057;SDS011;2044;48.692;9.020;2023-06-22T09:06:22;12.73;;;11.40;;
4057;SDS011;2044;48.692;9.020;2023-06-22T09:08:49;12.37;;;11.50;;
4057;SDS011;2044;48.692;9.020;2023-06-22T09:11:16;12.47;;;11.57;;
4057;SDS011;2044;48.692;9.020;2023-06-22T09:13:44;12.30;;;11.20;;
4057;SDS011;2044;48.692;9.020;2023-06-22T09:16:11;15.00;;;10.83;;
4057;SDS011;2044;48.692;9.020;2023-06-22T09:18:38;11.63;;;10.67;;
4057;SDS011;2044;48.692;9.020;2023-06-22T09:21:06;12.63;;;11.10;;
4057;SDS011;2044;48.692;9.020;2023-06-22T09:23:33;11.87;;;10.30;;
4057;SDS011;2044;48.692;9.020;2023-06-22T09:26:00;12.33;;;11.13;;
4057;SDS011;2044;48.692;9.020;2023-06-22T09:28:29;12.47;;;11.27;;
4057;SDS011;2044;48.692;9.020;2023-06-22T09:30:57;11.17;;;10.27;;
4057;SDS011;2044;48.692;9.020;2023-06-22T09:33:24;13.53;;;11.27;;
4057;SDS011;2044;48.692;9.020;2023-06-22T09:35:51;12.80;;;11.73;;
4057;SDS011;2044;48.692;9.020;2023-06-22T09:38:18;12.17;;;11.23;;
4057;SDS011;2044;48.692;9.020;2023-06-22T09:40:46;12.67;;;11.60;;
4057;SDS011;2044;48.692;9.020;2023-06-22T09:43:13;11.80;;;10.80;;
4057;SDS011;2044;48.692;9.020;2023-06-22T09:45:40;12.40;;;11.30;;
4057;SDS011;2044;48.692;9.020;2023-06-22T09:48:08;12.30;;;11.30;;
4057;SDS011;2044;48.692;9.020;2023-06-22T09:50:35;11.90;;;10.80;;
4057;SDS011;2044;48.692;9.020;2023-06-22T09:53:02;11.90;;;10.93;;
4057;SDS011;2044;48.692;9.020;2023-06-22T09:55:29;12.00;;;11.03;;
4057;SDS011;2044;48.692;9.020;2023-06-22T09:57:56;12.00;;;10.90;;
4057;SDS011;2044;48.692;9.020;2023-06-22T10:00:23;11.10;;;10.20;;
4057;SDS011;2044;48.692;9.020;2023-06-22T10:02:51;11.97;;;10.80;;
4057;SDS011;2044;48.692;9.020;2023-06-22T10:05:20;14.83;;;11.90;;
4057;SDS011;2044;48.692;9.020;2023-06-22T10:07:46;12.40;;;11.10;;
4057;SDS011;2044;48.692;9.020;2023-06-22T10:10:14;12.80;;;11.60;;
4057;SDS011;2044;48.692;9.020;2023-06-22T10:12:41;13.33;;;11.90;;
4057;SDS011;2044;48.692;9.020;2023-06-22T10:15:10;12.17;;;11.17;;
4057;SDS011;2044;48.692;9.020;2023-06-22T10:17:37;13.03;;;10.73;;
4057;SDS011;2044;48.692;9.020;2023-06-22T10:20:05;17.97;;;11.97;;
4057;SDS011;2044;48.692;9.020;2023-06-22T10:22:38;12.67;;;11.23;;
4057;SDS011;2044;48.692;9.020;2023-06-22T10:25:06;15.03;;;11.47;;
4057;SDS011;2044;48.692;9.020;2023-06-22T10:27:34;12.67;;;11.57;;
4057;SDS011;2044;48.692;9.020;2023-06-22T10:30:01;11.83;;;10.77;;
4057;SDS011;2044;48.692;9.020;2023-06-22T10:32:30;13.30;;;12.20;;
4057;SDS011;2044;48.692;9.020;2023-06-22T10:34:57;11.80;;;10.87;;
4057;SDS011;2044;48.692;9.020;2023-06-22T10:37:25;11.43;;;10.40;;
4057;SDS011;2044;48.692;9.020;2023-06-22T10:39:53;13.00;;;11.73;;
4057;SDS011;2044;48.692;9.020;2023-06-22T10:42:20;12.80;;;11.57;;
4057;SDS011;2044;48.692;9.020;2023-06-22T10:44:47;12.93;;;11.60;;
4057;SDS011;2044;48.692;9.020;2023-06-22T10:47:15;12.87;;;11.57;;
4057;SDS011;2044;48.692;9.020;2023-06-22T10:49:42;12.10;;;11.00;;
4057;SDS011;2044;48.692;9.020;2023-06-22T10:52:09;12.63;;;11.50;;
4057;SDS011;2044;48.692;9.020;2023-06-22T10:54:36;11.87;;;10.77;;
4057;SDS011;2044;48.692;9.020;2023-06-22T10:57:05;11.90;;;11.07;;
4057;SDS011;2044;48.692;9.020;2023-06-22T10:59:32;12.37;;;11.17;;
4057;SDS011;2044;48.692;9.020;2023-06-22T11:02:00;14.67;;;11.57;;
4057;SDS011;2044;48.692;9.020;2023-06-22T11:04:27;12.77;;;11.53;;
4057;SDS011;2044;48.692;9.020;2023-06-22T11:06:55;12.33;;;11.33;;
4057;SDS011;2044;48.692;9.020;2023-06-22T11:09:22;13.50;;;11.57;;
4057;SDS011;2044;48.692;9.020;2023-06-22T11:11:50;12.63;;;11.33;;
4057;SDS011;2044;48.692;9.020;2023-06-22T11:14:19;12.60;;;11.40;;
4057;SDS011;2044;48.692;9.020;2023-06-22T11:16:47;17.10;;;11.30;;
4057;SDS011;2044;48.692;9.020;2023-06-22T11:19:14;12.97;;;11.60;;
4057;SDS011;2044;48.692;9.020;2023-06-22T11:21:41;13.20;;;12.10;;
4057;SDS011;2044;48.692;9.020;2023-06-22T11:24:08;14.63;;;12.53;;
4057;SDS011;2044;48.692;9.020;2023-06-22T11:26:35;13.47;;;12.03;;
4057;SDS011;2044;48.692;9.020;2023-06-22T11:29:02;12.70;;;11.70;;
4057;SDS011;2044;48.692;9.020;2023-06-22T11:31:31;12.43;;;11.53;;
4057;SDS011;2044;48.692;9.020;2023-06-22T11:33:58;13.27;;;11.97;;
4057;SDS011;2044;48.692;9.020;2023-06-22T11:36:26;13.73;;;12.27;;
4057;SDS011;2044;48.692;9.020;2023-06-22T11:38:54;14.93;;;12.33;;
4057;SDS011;2044;48.692;9.020;2023-06-22T11:41:21;13.03;;;11.87;;
4057;SDS011;2044;48.692;9.020;2023-06-22T11:43:48;12.73;;;11.40;;
4057;SDS011;2044;48.692;9.020;2023-06-22T11:46:15;13.27;;;12.03;;
4057;SDS011;2044;48.692;9.020;2023-06-22T11:48:44;12.70;;;11.80;;
4057;SDS011;2044;48.692;9.020;2023-06-22T11:51:11;14.90;;;12.17;;
4057;SDS011;2044;48.692;9.020;2023-06-22T11:53:38;12.30;;;11.30;;
4057;SDS011;2044;48.692;9.020;2023-06-22T11:56:05;13.13;;;11.83;;
4057;SDS011;2044;48.692;9.020;2023-06-22T11:58:32;13.40;;;12.00;;
4057;SDS011;2044;48.692;9.020;2023-06-22T12:00:59;13.00;;;11.70;;
4057;SDS011;2044;48.692;9.020;2023-06-22T12:03:26;12.80;;;11.60;;
4057;SDS011;2044;48.692;9.020;2023-06-22T12:05:55;12.97;;;11.87;;
4057;SDS011;2044;48.692;9.020;2023-06-22T12:08:22;13.33;;;12.07;;
4057;SDS011;2044;48.692;9.020;2023-06-22T12:10:49;12.97;;;11.87;;
4057;SDS011;2044;48.692;9.020;2023-06-22T12:13:18;17.77;;;11.30;;
4057;SDS011;2044;48.692;9.020;2023-06-22T12:15:45;12.00;;;10.80;;
4057;SDS011;2044;48.692;9.020;2023-06-22T12:18:12;13.17;;;12.03;;
4057;SDS011;2044;48.692;9.020;2023-06-22T12:20:40;13.60;;;11.87;;
4057;SDS011;2044;48.692;9.020;2023-06-22T12:23:08;12.47;;;11.47;;
4057;SDS011;2044;48.692;9.020;2023-06-22T12:25:35;18.20;;;12.33;;
4057;SDS011;2044;48.692;9.020;2023-06-22T12:28:02;12.47;;;11.27;;
4057;SDS011;2044;48.692;9.020;2023-06-22T12:30:30;12.77;;;11.77;;
4057;SDS011;2044;48.692;9.020;2023-06-22T12:32:57;13.13;;;12.00;;
4057;SDS011;2044;48.692;9.020;2023-06-22T12:35:24;13.73;;;11.20;;
4057;SDS011;2044;48.692;9.020;2023-06-22T12:37:51;12.53;;;11.53;;
4057;SDS011;2044;48.692;9.020;2023-06-22T12:40:20;13.20;;;11.73;;
4057;SDS011;2044;48.692;9.020;2023-06-22T12:42:47;13.13;;;12.00;;
4057;SDS011;2044;48.692;9.020;2023-06-22T12:45:14;12.20;;;11.10;;
4057;SDS011;2044;48.692;9.020;2023-06-22T12:47:41;13.17;;;11.90;;
4057;SDS011;2044;48.692;9.020;2023-06-22T12:50:09;13.63;;;12.53;;
4057;SDS011;2044;48.692;9.020;2023-06-22T12:52:36;13.97;;;12.63;;
4057;SDS011;2044;48.692;9.020;2023-06-22T12:55:06;13.70;;;12.40;;
4057;SDS011;2044;48.692;9.020;2023-06-22T12:57:35;13.63;;;12.50;;
4057;SDS011;2044;48.692;9.020;2023-06-22T13:00:02;13.80;;;12.60;;
4057;SDS011;2044;48.692;9.020;2023-06-22T13:02:30;13.50;;;12.30;;
4057;SDS011;2044;48.692;9.020;2023-06-22T13:04:57;13.00;;;11.70;;
4057;SDS011;2044;48.692;9.020;2023-06-22T13:07:24;12.77;;;11.87;;
4057;SDS011;2044;48.692;9.020;2023-06-22T13:09:51;13.00;;;11.80;;
4057;SDS011;2044;48.692;9.020;2023-06-22T13:12:19;13.60;;;12.23;;
4057;SDS011;2044;48.692;9.020;2023-06-22T13:14:47;14.40;;;12.90;;
4057;SDS011;2044;48.692;9.020;2023-06-22T13:17:15;13.60;;;12.30;;
4057;SDS011;2044;48.692;9.020;2023-06-22T13:19:42;15.60;;;13.23;;
4057;SDS011;2044;48.692;9.020;2023-06-22T13:22:25;14.00;;;12.73;;
4057;SDS011;2044;48.692;9.020;2023-06-22T13:24:55;12.80;;;11.90;;
4057;SDS011;2044;48.692;9.020;2023-06-22T13:27:23;13.60;;;12.53;;
4057;SDS011;2044;48.692;9.020;2023-06-22T13:29:52;18.70;;;13.10;;
4057;SDS011;2044;48.692;9.020;2023-06-22T13:32:19;14.43;;;13.13;;
4057;SDS011;2044;48.692;9.020;2023-06-22T13:34:46;14.30;;;13.00;;
4057;SDS011;2044;48.692;9.020;2023-06-22T13:37:14;13.63;;;12.70;;
4057;SDS011;2044;48.692;9.020;2023-06-22T13:39:41;13.83;;;12.83;;
4057;SDS011;2044;48.692;9.020;2023-06-22T13:42:08;13.97;;;12.73;;
4057;SDS011;2044;48.692;9.020;2023-06-22T13:44:35;15.27;;;13.87;;
4057;SDS011;2044;48.692;9.020;2023-06-22T13:47:04;13.83;;;12.57;;
4057;SDS011;2044;48.692;9.020;2023-06-22T13:49:32;14.20;;;12.77;;
4057;SDS011;2044;48.692;9.020;2023-06-22T13:51:59;14.47;;;13.27;;
4057;SDS011;2044;48.692;9.020;2023-06-22T13:54:28;13.10;;;12.00;;
4057;SDS011;2044;48.692;9.020;2023-06-22T13:56:55;14.00;;;12.60;;
4057;SDS011;2044;48.692;9.020;2023-06-22T13:59:22;14.03;;;12.87;;
4057;SDS011;2044;48.692;9.020;2023-06-22T14:01:51;13.47;;;12.13;;
4057;SDS011;2044;48.692;9.020;2023-06-22T14:04:19;12.73;;;11.73;;
4057;SDS011;2044;48.692;9.020;2023-06-22T14:06:47;12.67;;;11.57;;
4057;SDS011;2044;48.692;9.020;2023-06-22T14:09:14;12.87;;;11.63;;
4057;SDS011;2044;48.692;9.020;2023-06-22T14:11:41;12.77;;;11.70;;
4057;SDS011;2044;48.692;9.020;2023-06-22T14:14:08;12.40;;;11.30;;
4057;SDS011;2044;48.692;9.020;2023-06-22T14:16:35;11.83;;;10.93;;
4057;SDS011;2044;48.692;9.020;2023-06-22T14:19:02;12.33;;;10.87;;
4057;SDS011;2044;48.692;9.020;2023-06-22T14:21:31;11.40;;;10.50;;
4057;SDS011;2044;48.692;9.020;2023-06-22T14:23:58;11.57;;;10.80;;
4057;SDS011;2044;48.692;9.020;2023-06-22T14:26:25;11.07;;;10.20;;
4057;SDS011;2044;48.692;9.020;2023-06-22T14:28:52;12.73;;;11.20;;
4057;SDS011;2044;48.692;9.020;2023-06-22T14:31:21;10.80;;;9.70;;
4057;SDS011;2044;48.692;9.020;2023-06-22T14:33:49;12.70;;;9.50;;
4057;SDS011;2044;48.692;9.020;2023-06-22T14:36:16;9.90;;;9.13;;
4057;SDS011;2044;48.692;9.020;2023-06-22T14:38:45;10.03;;;8.80;;
4057;SDS011;2044;48.692;9.020;2023-06-22T14:41:12;10.87;;;8.73;;
4057;SDS011;2044;48.692;9.020;2023-06-22T14:43:43;13.93;;;9.50;;
4057;SDS011;2044;48.692;9.020;2023-06-22T14:46:11;9.83;;;8.83;;
4057;SDS011;2044;48.692;9.020;2023-06-22T14:48:38;9.97;;;8.83;;
4057;SDS011;2044;48.692;9.020;2023-06-22T14:51:06;8.90;;;8.37;;
4057;SDS011;2044;48.692;9.020;2023-06-22T14:53:33;9.93;;;8.20;;
4057;SDS011;2044;48.692;9.020;2023-06-22T14:56:02;9.73;;;8.70;;
4057;SDS011;2044;48.692;9.020;2023-06-22T14:58:29;12.80;;;9.20;;